createdAt,value
2022-10-18T00:01:10.677Z,18887.19
2022-10-18T00:03:39.749Z,18862.81
2022-10-18T00:06:09.169Z,18903.44
2022-10-18T00:08:38.553Z,18895.31
2022-10-18T00:11:07.708Z,18822.19
2022-10-18T00:13:36.175Z,18818.09
2022-10-18T00:16:12.725Z,18816.06
2022-10-18T00:18:41.353Z,18795.75
2022-10-18T00:21:13.776Z,18850.63
2022-10-18T00:23:42.105Z,18846.56
2022-10-18T00:26:14.820Z,18828.28
2022-10-18T00:28:44.159Z,18852.66
2022-10-18T00:31:20.718Z,18826.25
2022-10-18T00:33:52.738Z,18818.09
2022-10-18T00:36:21.921Z,18870.94
2022-10-18T00:38:51.231Z,18826.25
2022-10-18T00:41:23.607Z,18881.09
2022-10-18T00:43:58.697Z,18866.88
2022-10-18T00:46:30.837Z,18881.09
2022-10-18T00:49:03.871Z,18844.53
2022-10-18T00:51:38.462Z,18822.19
2022-10-18T00:54:06.748Z,18838.44
2022-10-18T00:56:35.828Z,18826.25
2022-10-18T00:59:04.414Z,18840.47
2022-10-18T01:01:33.802Z,18848.59
2022-10-18T01:04:02.350Z,18895.31
2022-10-18T01:06:30.965Z,18824.22
2022-10-18T01:09:13.112Z,18862.81
2022-10-18T01:12:11.637Z,18809.97
2022-10-18T01:14:52.043Z,18846.56
2022-10-18T01:17:32.351Z,18846.56
2022-10-18T01:20:59.235Z,18828.28
2022-10-18T01:24:09.203Z,18828.28
2022-10-18T01:27:09.420Z,18795.75
2022-10-18T01:29:56.590Z,18777.47
2022-10-18T01:32:33.779Z,18852.66
2022-10-18T01:35:10.462Z,18830.31
2022-10-18T01:37:40.624Z,18807.94
2022-10-18T01:40:13.902Z,18789.66
2022-10-18T01:42:43.051Z,18783.56
2022-10-18T01:45:15.030Z,18832.34
2022-10-18T01:47:47.802Z,18807.94
2022-10-18T01:50:16.595Z,18830.31
2022-10-18T01:52:51.143Z,18854.69
2022-10-18T01:55:28.073Z,18820.16
2022-10-18T01:58:07.408Z,18822.19
2022-10-18T02:00:42.794Z,18866.88
2022-10-18T02:03:22.046Z,18840.47
2022-10-18T02:05:58.546Z,18826.25
2022-10-18T02:08:35.686Z,18862.81
2022-10-18T02:11:07.809Z,18809.97
2022-10-18T02:13:41.789Z,18858.75
2022-10-18T02:16:14.902Z,18836.41
2022-10-18T02:18:51.161Z,18836.41
2022-10-18T02:21:23.603Z,18807.94
2022-10-18T02:23:53.123Z,18795.75
2022-10-18T02:26:21.284Z,18842.50
2022-10-18T02:28:49.652Z,18830.31
2022-10-18T02:31:27.040Z,18830.31
2022-10-18T02:34:04.366Z,18842.50
2022-10-18T02:36:39.159Z,18842.50
2022-10-18T02:39:14.913Z,18875.00
2022-10-18T02:41:43.876Z,18809.97
2022-10-18T02:44:12.369Z,18846.56
2022-10-18T02:46:41.022Z,18824.22
2022-10-18T02:49:10.315Z,18814.03
2022-10-18T02:51:38.401Z,18809.97
2022-10-18T02:54:08.333Z,18795.75
2022-10-18T02:56:37.173Z,18785.59
2022-10-18T02:59:07.274Z,18830.31
2022-10-18T03:01:36.132Z,18805.91
2022-10-18T03:04:04.668Z,18844.53
2022-10-18T03:06:34.918Z,18818.09
2022-10-18T03:09:04.661Z,18820.16
2022-10-18T03:11:33.480Z,18838.44
2022-10-18T03:14:01.473Z,18826.25
2022-10-18T03:16:29.533Z,18807.94
2022-10-18T03:18:57.572Z,18803.88
2022-10-18T03:21:25.577Z,18824.22
2022-10-18T03:23:54.931Z,18791.69
2022-10-18T03:26:22.922Z,18836.41
2022-10-18T03:28:50.954Z,18830.31
2022-10-18T03:31:19.002Z,18830.31
2022-10-18T03:33:47.669Z,18820.16
2022-10-18T03:36:16.091Z,18812.00
2022-10-18T03:38:44.233Z,18809.97
2022-10-18T03:41:13.668Z,18803.88
2022-10-18T03:43:41.724Z,18803.88
2022-10-18T03:46:09.867Z,18807.94
2022-10-18T03:48:37.876Z,18809.97
2022-10-18T03:51:06.382Z,18818.09
2022-10-18T03:53:34.400Z,18824.22
2022-10-18T03:56:02.447Z,18860.78
2022-10-18T03:58:31.835Z,18816.06
2022-10-18T04:00:59.798Z,18830.31
2022-10-18T04:03:28.027Z,18812.00
2022-10-18T04:05:56.878Z,18830.31
2022-10-18T04:08:24.841Z,18842.50
2022-10-18T04:10:52.917Z,18809.97
2022-10-18T04:13:21.042Z,18793.72
2022-10-18T04:15:50.366Z,18830.31
2022-10-18T04:18:18.498Z,18834.38
2022-10-18T04:20:46.485Z,18877.03
2022-10-18T04:23:14.518Z,18816.06
2022-10-18T04:28:11.447Z,18818.09
2022-10-18T04:30:39.441Z,18818.09
2022-10-18T04:33:08.873Z,18816.06
2022-10-18T04:35:37.747Z,18838.44
2022-10-18T04:38:05.784Z,18824.22
2022-10-18T04:40:33.744Z,18832.34
2022-10-18T04:43:01.730Z,18826.25
2022-10-18T04:45:29.798Z,18814.03
2022-10-18T04:47:57.830Z,18846.56
2022-10-18T04:50:27.216Z,18854.69
2022-10-18T04:52:55.262Z,18840.47
2022-10-18T04:55:23.331Z,18856.72
2022-10-18T04:57:51.359Z,18814.03
2022-10-18T05:00:19.503Z,18824.22
2022-10-18T05:02:47.544Z,18797.78
2022-10-18T05:05:15.821Z,18836.41
2022-10-18T05:07:45.162Z,18834.38
2022-10-18T05:10:13.089Z,18872.97
2022-10-18T05:12:41.065Z,18842.50
2022-10-18T05:15:10.177Z,18820.16
2022-10-18T05:17:38.289Z,18814.03
2022-10-18T05:20:07.635Z,18775.44
2022-10-18T05:22:35.683Z,18816.06
2022-10-18T05:25:05.697Z,18795.75
2022-10-18T05:27:33.667Z,18820.16
2022-10-18T05:30:04.702Z,18818.09
2022-10-18T05:32:34.052Z,18795.75
2022-10-18T05:35:02.364Z,18791.69
2022-10-18T05:37:30.352Z,18783.56
2022-10-18T05:39:58.357Z,18787.63
2022-10-18T05:42:27.667Z,18789.66
2022-10-18T05:44:55.643Z,18787.63
2022-10-18T05:47:23.638Z,18769.34
2022-10-18T05:49:51.590Z,18818.09
2022-10-18T05:52:19.579Z,18791.69
2022-10-18T05:54:47.597Z,18781.53
2022-10-18T05:57:15.542Z,18777.47
2022-10-18T05:59:45.518Z,18740.91
2022-10-18T06:02:13.984Z,18783.56
2022-10-18T06:04:42.002Z,18744.97
2022-10-18T06:07:11.216Z,18781.53
2022-10-18T06:09:39.740Z,18826.25
2022-10-18T06:12:08.926Z,18755.13
2022-10-18T06:14:37.269Z,18834.38
2022-10-18T06:17:06.651Z,18787.63
2022-10-18T06:19:34.643Z,18799.81
2022-10-18T06:22:02.575Z,18763.25
2022-10-18T06:24:30.554Z,18812.00
2022-10-18T06:26:58.854Z,18757.16
2022-10-18T06:29:26.850Z,18757.16
2022-10-18T06:31:54.844Z,18769.34
2022-10-18T06:34:24.260Z,18769.34
2022-10-18T06:36:56.422Z,18761.22
2022-10-18T06:39:26.461Z,18749.03
2022-10-18T06:41:54.797Z,18740.91
2022-10-18T06:44:22.938Z,18744.97
2022-10-18T06:46:51.607Z,18755.13
2022-10-18T06:49:19.587Z,18765.28
2022-10-18T06:51:48.869Z,18773.41
2022-10-18T06:54:18.616Z,18789.66
2022-10-18T06:56:47.044Z,18795.75
2022-10-18T06:59:15.414Z,18773.41
2022-10-18T07:01:43.773Z,18757.16
2022-10-18T07:04:11.982Z,18769.34
2022-10-18T07:06:40.006Z,18777.47
2022-10-18T07:09:09.366Z,18763.25
2022-10-18T07:11:37.325Z,18812.00
2022-10-18T07:14:05.385Z,18765.28
2022-10-18T07:16:34.639Z,18791.69
2022-10-18T07:19:02.688Z,18791.69
2022-10-18T07:21:31.414Z,18791.69
2022-10-18T07:23:59.561Z,18771.38
2022-10-18T07:26:31.799Z,18773.41
2022-10-18T07:29:02.399Z,18749.03
2022-10-18T07:31:31.163Z,18787.63
2022-10-18T07:33:59.155Z,18769.34
2022-10-18T07:36:27.418Z,18775.44
2022-10-18T07:38:55.581Z,18761.22
2022-10-18T07:41:24.473Z,18740.91
2022-10-18T07:43:54.750Z,18751.06
2022-10-18T07:46:23.716Z,18775.44
2022-10-18T07:48:52.657Z,18763.25
2022-10-18T07:51:23.695Z,18767.31
2022-10-18T07:53:51.699Z,18688.06
2022-10-18T07:56:22.107Z,18675.88
2022-10-18T07:58:53.917Z,18655.56
2022-10-18T08:01:23.673Z,18610.88
2022-10-18T08:03:54.576Z,18592.59
2022-10-18T08:06:24.443Z,18568.19
2022-10-18T08:08:53.250Z,18553.97
2022-10-18T08:11:23.771Z,18568.19
2022-10-18T08:13:54.411Z,18543.81
2022-10-18T08:16:25.463Z,18509.28
2022-10-18T08:18:53.814Z,18535.69
2022-10-18T08:21:23.059Z,18527.56
2022-10-18T08:23:51.540Z,18497.09
2022-10-18T08:26:23.039Z,18488.97
2022-10-18T08:28:58.271Z,18488.97
2022-10-18T08:31:32.116Z,18480.84
2022-10-18T08:34:00.117Z,18488.97
2022-10-18T08:36:28.206Z,18511.31
2022-10-18T08:38:56.187Z,18466.63
2022-10-18T08:41:53.637Z,18476.78
2022-10-18T08:44:27.687Z,18423.94
2022-10-18T08:47:03.657Z,18444.28
2022-10-18T08:49:45.565Z,18478.81
2022-10-18T08:52:24.919Z,18423.94
2022-10-18T08:55:02.546Z,18401.59
2022-10-18T08:57:33.235Z,18421.91
2022-10-18T09:00:04.035Z,18367.06
2022-10-18T09:02:47.337Z,18391.44
2022-10-18T09:05:29.257Z,18360.97
2022-10-18T09:08:39.926Z,18395.50
2022-10-18T09:11:25.536Z,18342.69
2022-10-18T09:14:38.726Z,18403.63
2022-10-18T09:17:21.929Z,18344.72
2022-10-18T09:20:11.981Z,18342.69
2022-10-18T09:22:57.796Z,18363.00
2022-10-18T09:25:36.355Z,18352.84
2022-10-18T09:28:22.699Z,18342.69
2022-10-18T09:31:01.528Z,18336.59
2022-10-18T09:33:47.698Z,18336.59
2022-10-18T09:36:22.755Z,18350.81
2022-10-18T09:38:59.858Z,18365.03
2022-10-18T09:41:36.146Z,18379.25
2022-10-18T09:44:15.030Z,18387.38
2022-10-18T09:46:50.666Z,18336.59
2022-10-18T09:49:26.500Z,18356.91
2022-10-18T09:51:56.386Z,18373.16
2022-10-18T09:54:34.895Z,18419.88
2022-10-18T09:57:10.886Z,18356.91
2022-10-18T09:59:43.670Z,18371.13
2022-10-18T10:02:16.764Z,18350.81
2022-10-18T10:04:46.488Z,18411.75
2022-10-18T10:07:18.563Z,18383.31
2022-10-18T10:09:49.179Z,18356.91
2022-10-18T10:12:33.292Z,18371.13
2022-10-18T10:15:19.785Z,18367.06
2022-10-18T10:17:58.609Z,18389.41
2022-10-18T10:20:36.615Z,18391.44
2022-10-18T10:23:14.821Z,18407.69
2022-10-18T10:25:44.226Z,18373.16
2022-10-18T10:28:19.347Z,18387.38
2022-10-18T10:30:47.228Z,18383.31
2022-10-18T10:33:34.213Z,18383.31
2022-10-18T10:36:06.881Z,18428.03
2022-10-18T10:38:34.808Z,18497.09
2022-10-18T10:41:02.883Z,18497.09
2022-10-18T10:43:38.829Z,18517.41
2022-10-18T10:46:10.972Z,18478.81
2022-10-18T10:48:50.315Z,18480.84
2022-10-18T10:51:30.510Z,18529.59
2022-10-18T10:54:04.224Z,18527.56
2022-10-18T10:56:36.884Z,18537.72
2022-10-18T10:59:16.556Z,18592.59
2022-10-18T11:01:45.178Z,18586.50
2022-10-18T11:04:29.302Z,18556.00
2022-10-18T11:07:20.814Z,18537.72
2022-10-18T11:10:03.495Z,18594.63
2022-10-18T11:12:40.196Z,18545.84
2022-10-18T11:15:20.780Z,18574.28
2022-10-18T11:18:03.402Z,18574.28
2022-10-18T11:20:38.424Z,18619.00
2022-10-18T11:23:12.775Z,18619.00
2022-10-18T11:26:05.044Z,18631.19
2022-10-18T11:28:57.838Z,18594.63
2022-10-18T11:31:33.731Z,18584.47
2022-10-18T11:34:26.789Z,18574.28
2022-10-18T11:37:27.006Z,18574.28
2022-10-18T11:40:10.107Z,18549.91
2022-10-18T11:42:54.534Z,18533.66
2022-10-18T11:45:38.212Z,18535.69
2022-10-18T11:48:24.109Z,18602.75
2022-10-18T11:51:02.153Z,18566.16
2022-10-18T11:53:40.711Z,18558.03
2022-10-18T11:56:22.556Z,18553.97
2022-10-18T11:59:27.474Z,18517.41
2022-10-18T12:02:27.101Z,18566.16
2022-10-18T12:05:22.598Z,18519.44
2022-10-18T12:08:01.288Z,18452.41
2022-10-18T12:10:52.732Z,18452.41
2022-10-18T12:13:34.359Z,18419.88
2022-10-18T12:16:06.159Z,18470.69
2022-10-18T12:18:36.960Z,18456.47
2022-10-18T12:21:07.748Z,18438.19
2022-10-18T12:23:48.031Z,18432.09
2022-10-18T12:26:17.923Z,18448.34
2022-10-18T12:29:01.518Z,18448.34
2022-10-18T12:31:38.984Z,18415.81
2022-10-18T12:34:27.966Z,18444.28
2022-10-18T12:37:35.034Z,18436.16
2022-10-18T12:40:13.422Z,18430.06
2022-10-18T12:42:46.156Z,18419.88
2022-10-18T12:45:34.169Z,18405.66
2022-10-18T12:48:06.048Z,18430.06
2022-10-18T12:50:37.950Z,18436.16
2022-10-18T12:53:18.553Z,18460.53
2022-10-18T12:55:49.185Z,18491.00
2022-10-18T12:58:34.793Z,18488.97
2022-10-18T13:01:08.520Z,18507.25
2022-10-18T13:03:54.538Z,18515.38
2022-10-18T13:06:24.482Z,18570.22
2022-10-18T13:09:20.850Z,18627.13
2022-10-18T13:11:49.508Z,18631.19
2022-10-18T13:14:49.383Z,18631.19
2022-10-18T13:17:39.151Z,18667.75
2022-10-18T13:20:27.977Z,18639.31
2022-10-18T13:23:23.824Z,18684.00
2022-10-18T13:26:12.813Z,18665.72
2022-10-18T13:28:53.926Z,18614.94
2022-10-18T13:31:30.330Z,18588.53
2022-10-18T13:34:24.419Z,18600.72
2022-10-18T13:37:00.079Z,18623.06
2022-10-18T13:39:29.521Z,18612.91
2022-10-18T13:42:33.114Z,18606.81
2022-10-18T13:45:54.092Z,18584.47
2022-10-18T13:48:50.961Z,18592.59
2022-10-18T13:51:54.903Z,18600.72
2022-10-18T13:54:47.883Z,18616.97
2022-10-18T13:57:41.495Z,18619.00
2022-10-18T14:00:54.478Z,18612.91
2022-10-18T14:04:07.908Z,18633.22
2022-10-18T14:06:41.418Z,18643.38
2022-10-18T14:09:26.481Z,18621.03
2022-10-18T14:12:22.269Z,18657.59
2022-10-18T14:14:58.985Z,18718.56
2022-10-18T14:20:28.598Z,18631.19
2022-10-18T14:23:09.336Z,18641.34
2022-10-18T14:25:39.982Z,18590.56
2022-10-18T14:28:14.754Z,18619.00
2022-10-18T14:30:55.702Z,18602.75
2022-10-18T14:33:35.453Z,18641.34
2022-10-18T14:36:13.070Z,18598.69
2022-10-18T14:38:52.565Z,18586.50
2022-10-18T14:41:26.643Z,18574.28
2022-10-18T14:44:18.402Z,18614.94
2022-10-18T14:46:49.542Z,18578.38
2022-10-18T14:49:19.843Z,18574.28
2022-10-18T14:51:52.725Z,18535.69
2022-10-18T14:54:29.148Z,18568.19
2022-10-18T14:57:02.912Z,18556.00
2022-10-18T14:59:35.620Z,18521.47
2022-10-18T15:02:13.679Z,18480.84
2022-10-18T15:04:45.482Z,18458.50
2022-10-18T15:07:18.250Z,18507.25
2022-10-18T15:09:48.433Z,18428.03
2022-10-18T15:12:19.157Z,18468.66
2022-10-18T15:14:48.842Z,18440.22
2022-10-18T15:17:23.287Z,18399.56
2022-10-18T15:20:00.567Z,18389.41
2022-10-18T15:22:33.858Z,18407.69
2022-10-18T15:25:16.299Z,18419.88
2022-10-18T15:27:50.174Z,18419.88
2022-10-18T15:30:25.479Z,18344.72
2022-10-18T15:32:56.619Z,18381.28
2022-10-18T15:35:29.136Z,18358.94
2022-10-18T15:38:00.233Z,18371.13
2022-10-18T15:40:40.314Z,18348.78
2022-10-18T15:43:37.838Z,18350.81
2022-10-18T15:46:07.427Z,18344.72
2022-10-18T15:48:38.883Z,18314.25
2022-10-18T15:51:09.773Z,18360.97
2022-10-18T15:53:46.650Z,18373.16
2022-10-18T15:56:32.441Z,18306.13
2022-10-18T15:59:04.840Z,18334.56
2022-10-18T16:01:45.302Z,18298.00
2022-10-18T16:04:20.885Z,18300.03
2022-10-18T16:06:48.813Z,18302.06
2022-10-18T16:09:20.043Z,18261.44
2022-10-18T16:11:55.606Z,18232.97
2022-10-18T16:14:27.771Z,18208.59
2022-10-18T16:17:01.763Z,18218.75
2022-10-18T16:19:29.980Z,18161.88
2022-10-18T16:22:01.102Z,18170.00
2022-10-18T16:24:31.742Z,18190.31
2022-10-18T16:26:59.658Z,18186.25
2022-10-18T16:29:31.997Z,18170.00
2022-10-18T16:32:01.324Z,18145.63
2022-10-18T16:34:29.568Z,18137.50
2022-10-18T16:36:57.468Z,18092.81
2022-10-18T16:39:25.621Z,18109.06
2022-10-18T16:41:53.715Z,18098.91
2022-10-18T16:44:21.725Z,18074.53
2022-10-18T16:46:53.877Z,18066.41
2022-10-18T16:49:26.663Z,18143.59
2022-10-18T16:51:55.941Z,18076.56
2022-10-18T16:54:24.429Z,18123.28
2022-10-18T16:56:52.420Z,18092.81
2022-10-18T16:59:27.430Z,18070.47
2022-10-18T17:01:56.830Z,18076.56
2022-10-18T17:04:24.828Z,18054.22
2022-10-18T17:06:55.305Z,18044.06
2022-10-18T17:09:23.211Z,18044.06
2022-10-18T17:11:51.357Z,18066.41
2022-10-18T17:14:19.252Z,18019.69
2022-10-18T17:16:50.816Z,18029.84
2022-10-18T17:19:24.144Z,18025.78
2022-10-18T17:21:52.058Z,17993.28
2022-10-18T17:24:19.972Z,17987.19
2022-10-18T17:26:47.933Z,17972.97
2022-10-18T17:29:15.947Z,17989.22
2022-10-18T17:31:44.124Z,17954.69
2022-10-18T17:34:12.028Z,17972.97
2022-10-18T17:36:41.304Z,17979.06
2022-10-18T17:39:10.341Z,17985.16
2022-10-18T17:41:38.447Z,18023.75
2022-10-18T17:44:06.962Z,17995.31
2022-10-18T17:46:34.895Z,17989.22
2022-10-18T17:49:02.889Z,17995.31
2022-10-18T17:51:30.835Z,18007.50
2022-10-18T17:54:00.174Z,17956.72
2022-10-18T17:56:32.843Z,17972.97
2022-10-18T17:59:00.965Z,17985.16
2022-10-18T18:01:29.281Z,17962.81
2022-10-18T18:03:58.241Z,17942.50
2022-10-18T18:06:31.164Z,17883.56
2022-10-18T18:09:04.717Z,17950.63
2022-10-18T18:11:32.705Z,17940.47
2022-10-18T18:14:01.199Z,17964.84
2022-10-18T18:16:30.959Z,17914.03
2022-10-18T18:18:59.897Z,17918.09
2022-10-18T18:21:28.772Z,17918.09
2022-10-18T18:23:57.412Z,17930.31
2022-10-18T18:26:27.553Z,17944.53
2022-10-18T18:28:55.600Z,17928.28
2022-10-18T18:31:25.699Z,17916.06
2022-10-18T18:33:56.297Z,17891.69
2022-10-18T18:36:28.816Z,17883.56
2022-10-18T18:38:57.958Z,17881.53
2022-10-18T18:41:29.758Z,17899.81
2022-10-18T18:44:00.378Z,17883.56
2022-10-18T18:46:33.371Z,17877.47
2022-10-18T18:49:02.132Z,17871.38
2022-10-18T18:51:30.432Z,17881.53
2022-10-18T18:53:58.754Z,17855.13
2022-10-18T18:56:29.798Z,17861.22
2022-10-18T18:59:00.257Z,17824.66
2022-10-18T19:01:31.150Z,17822.63
2022-10-18T19:04:00.554Z,17820.59
2022-10-18T19:06:31.802Z,17814.50
2022-10-18T19:09:03.733Z,17794.19
2022-10-18T19:11:37.706Z,17808.41
2022-10-18T19:14:07.842Z,17743.41
2022-10-18T19:16:38.257Z,17733.25
2022-10-18T19:19:09.036Z,17782.00
2022-10-18T19:21:40.410Z,17749.50
2022-10-18T19:24:09.124Z,17692.63
2022-10-18T19:26:44.527Z,17706.84
2022-10-18T19:29:15.892Z,17698.72
2022-10-18T19:31:45.110Z,17680.44
2022-10-18T19:34:16.144Z,17737.31
2022-10-18T19:36:46.913Z,17692.63
2022-10-18T19:39:18.189Z,17658.09
2022-10-18T19:41:49.251Z,17696.69
2022-10-18T19:44:19.243Z,17682.47
2022-10-18T19:46:48.310Z,17694.66
2022-10-18T19:49:16.922Z,17719.03
2022-10-18T19:51:45.058Z,17637.78
2022-10-18T19:54:14.194Z,17637.78
2022-10-18T19:56:42.697Z,17635.75
2022-10-18T19:59:14.537Z,17631.69
2022-10-18T20:01:42.672Z,17633.72
2022-10-18T20:04:12.741Z,17656.06
2022-10-18T20:06:42.056Z,17647.94
2022-10-18T20:09:16.152Z,17603.25
2022-10-18T20:11:47.525Z,17593.09
2022-10-18T20:14:16.822Z,17684.50
2022-10-18T20:16:44.829Z,17635.75
2022-10-18T20:19:12.830Z,17617.47
2022-10-18T20:21:40.833Z,17587.00
2022-10-18T20:24:10.267Z,17635.75
2022-10-18T20:26:39.499Z,17591.06
2022-10-18T20:29:08.150Z,17625.59
2022-10-18T20:31:39.067Z,17595.13
2022-10-18T20:34:11.460Z,17582.94
2022-10-18T20:36:40.860Z,17546.38
2022-10-18T20:39:09.485Z,17625.59
2022-10-18T20:41:40.963Z,17580.91
2022-10-18T20:44:14.523Z,17568.72
2022-10-18T20:46:44.986Z,17570.75
2022-10-18T20:49:15.957Z,17544.34
2022-10-18T20:51:43.979Z,17601.22
2022-10-18T20:54:12.545Z,17546.38
2022-10-18T20:56:40.812Z,17497.63
2022-10-18T20:59:10.127Z,17528.09
2022-10-18T21:01:40.557Z,17503.72
2022-10-18T21:04:11.472Z,17528.09
2022-10-18T21:06:42.508Z,17485.44
2022-10-18T21:09:14.141Z,17491.53
2022-10-18T21:11:46.775Z,17524.03
2022-10-18T21:14:17.461Z,17511.84
2022-10-18T21:16:46.466Z,17517.94
2022-10-18T21:19:18.001Z,17505.75
2022-10-18T21:21:49.530Z,17497.63
2022-10-18T21:24:18.729Z,17479.34
2022-10-18T21:26:47.686Z,17501.69
2022-10-18T21:29:20.905Z,17471.22
2022-10-18T21:31:50.143Z,17461.09
2022-10-18T21:34:19.467Z,17459.06
2022-10-18T21:36:48.946Z,17473.25
2022-10-18T21:39:19.616Z,17479.34
2022-10-18T21:41:48.606Z,17477.31
2022-10-18T21:44:17.458Z,17420.47
2022-10-18T21:46:46.707Z,17450.94
2022-10-18T21:49:16.197Z,17436.72
2022-10-18T21:51:46.076Z,17436.72
2022-10-18T21:54:16.384Z,17430.63
2022-10-18T21:56:44.831Z,17438.75
2022-10-18T21:59:14.298Z,17438.75
2022-10-18T22:01:44.108Z,17410.31
2022-10-18T22:04:21.296Z,17412.34
2022-10-18T22:06:51.757Z,17392.03
2022-10-18T22:09:21.083Z,17392.03
2022-10-18T22:11:52.722Z,17371.72
2022-10-18T22:14:20.814Z,17353.44
2022-10-18T22:16:49.215Z,17367.66
2022-10-18T22:19:17.584Z,17400.16
2022-10-18T22:21:45.578Z,17379.84
2022-10-18T22:24:15.220Z,17353.44
2022-10-18T22:26:45.477Z,17339.22
2022-10-18T22:29:16.650Z,17349.38
2022-10-18T22:31:48.272Z,17369.69
2022-10-18T22:34:19.686Z,17363.59
2022-10-18T22:36:48.252Z,17363.59
2022-10-18T22:39:18.598Z,17333.13
2022-10-18T22:41:47.193Z,17339.22
2022-10-18T22:44:16.048Z,17335.16
2022-10-18T22:46:44.224Z,17318.91
2022-10-18T22:49:13.277Z,17318.91
2022-10-18T22:51:41.596Z,17341.25
2022-10-18T22:54:09.789Z,17329.06
2022-10-18T22:56:39.223Z,17300.63
2022-10-18T22:59:07.276Z,17310.78
2022-10-18T23:01:35.301Z,17296.56
2022-10-18T23:04:04.740Z,17284.38
2022-10-18T23:06:35.317Z,17292.50
2022-10-18T23:09:07.286Z,17286.41
2022-10-18T23:11:38.626Z,17325.00
2022-10-18T23:14:07.784Z,17274.22
2022-10-18T23:16:36.530Z,17268.13
2022-10-18T23:19:05.612Z,17290.47
2022-10-18T23:21:35.784Z,17266.09
2022-10-18T23:24:04.263Z,17249.84
2022-10-18T23:26:34.248Z,17278.28
2022-10-18T23:29:04.037Z,17290.47
2022-10-18T23:31:34.215Z,17290.47
2022-10-18T23:34:05.914Z,17292.50
2022-10-18T23:36:34.819Z,17276.25
2022-10-18T23:39:03.799Z,17312.81
2022-10-18T23:41:31.936Z,17306.72
2022-10-18T23:43:59.997Z,17290.47
2022-10-18T23:46:29.508Z,17290.47
2022-10-18T23:48:57.521Z,17227.50
2022-10-18T23:51:25.559Z,17255.94
2022-10-18T23:53:53.559Z,17231.56
2022-10-18T23:56:21.575Z,17280.31
2022-10-18T23:58:49.527Z,17260.00
